createdAt,value
2018-07-21T00:00:34.488Z,6.60
2018-07-21T00:03:02.886Z,6.70
2018-07-21T00:05:31.332Z,6.80
2018-07-21T00:07:59.769Z,5.63
2018-07-21T00:10:28.203Z,5.87
2018-07-21T00:12:56.660Z,6.20
2018-07-21T00:15:25.144Z,6.93
2018-07-21T00:17:53.556Z,6.50
2018-07-21T00:20:21.982Z,6.80
2018-07-21T00:22:50.375Z,7.17
2018-07-21T00:25:18.744Z,5.93
2018-07-21T00:27:47.217Z,5.93
2018-07-21T00:30:15.627Z,5.17
2018-07-21T00:32:44.140Z,4.90
2018-07-21T00:35:12.592Z,5.50
2018-07-21T00:37:41.081Z,5.70
2018-07-21T00:40:09.685Z,6.53
2018-07-21T00:42:38.118Z,6.20
2018-07-21T00:45:06.563Z,6.37
2018-07-21T00:47:34.973Z,7.20
2018-07-21T00:50:03.428Z,6.90
2018-07-21T00:52:32.496Z,7.23
2018-07-21T00:55:00.925Z,7.37
2018-07-21T00:57:29.336Z,7.60
2018-07-21T00:59:57.730Z,7.30
2018-07-21T01:02:26.741Z,7.23
2018-07-21T01:04:55.149Z,7.40
2018-07-21T01:07:23.536Z,7.97
2018-07-21T01:09:51.982Z,7.17
2018-07-21T01:12:20.468Z,7.87
2018-07-21T01:14:48.925Z,7.40
2018-07-21T01:17:17.338Z,7.10
2018-07-21T01:19:45.801Z,7.93
2018-07-21T01:22:14.175Z,7.93
2018-07-21T01:24:42.868Z,7.40
2018-07-21T01:27:11.240Z,7.20
2018-07-21T01:29:39.636Z,7.97
2018-07-21T01:32:08.042Z,7.10
2018-07-21T01:34:36.452Z,6.80
2018-07-21T01:37:04.892Z,6.43
2018-07-21T01:39:33.384Z,7.10
2018-07-21T01:42:01.754Z,7.37
2018-07-21T01:44:30.144Z,7.53
2018-07-21T01:46:58.592Z,7.60
2018-07-21T01:49:27.008Z,7.60
2018-07-21T01:51:55.450Z,8.60
2018-07-21T01:54:23.861Z,8.23
2018-07-21T01:56:52.241Z,9.07
2018-07-21T01:59:20.660Z,8.30
2018-07-21T02:01:49.092Z,6.77
2018-07-21T02:04:17.479Z,6.13
2018-07-21T02:06:45.901Z,6.97
2018-07-21T02:09:14.304Z,7.10
2018-07-21T02:11:42.692Z,7.40
2018-07-21T02:14:11.101Z,5.60
2018-07-21T02:16:39.508Z,5.90
2018-07-21T02:19:08.014Z,8.87
2018-07-21T02:21:36.457Z,10.47
2018-07-21T02:24:04.908Z,10.10
2018-07-21T02:26:33.318Z,9.90
2018-07-21T02:29:01.712Z,9.27
2018-07-21T02:31:30.186Z,8.27
2018-07-21T02:33:58.719Z,7.27
2018-07-21T02:36:27.664Z,6.80
2018-07-21T02:38:56.121Z,6.70
2018-07-21T02:41:24.578Z,7.07
2018-07-21T02:43:52.969Z,7.73
2018-07-21T02:46:21.329Z,6.97
2018-07-21T02:48:49.795Z,8.23
2018-07-21T02:51:18.211Z,8.90
2018-07-21T02:53:46.577Z,8.90
2018-07-21T02:56:14.994Z,8.23
2018-07-21T02:58:43.411Z,9.10
2018-07-21T03:01:11.781Z,8.27
2018-07-21T03:03:40.185Z,8.30
2018-07-21T03:06:08.597Z,8.33
2018-07-21T03:08:36.995Z,8.10
2018-07-21T03:11:05.400Z,9.30
2018-07-21T03:13:33.849Z,9.23
2018-07-21T03:16:02.280Z,9.03
2018-07-21T03:18:30.648Z,8.43
2018-07-21T03:20:59.073Z,9.77
2018-07-21T03:23:27.498Z,9.63
2018-07-21T03:25:55.972Z,10.23
2018-07-21T03:28:24.381Z,9.20
2018-07-21T03:30:52.861Z,9.87
2018-07-21T03:33:21.233Z,9.13
2018-07-21T03:35:49.643Z,9.00
2018-07-21T03:38:18.067Z,9.80
2018-07-21T03:40:46.491Z,10.40
2018-07-21T03:43:14.919Z,9.33
2018-07-21T03:45:43.372Z,8.70
2018-07-21T03:48:11.731Z,9.50
2018-07-21T03:50:40.127Z,9.53
2018-07-21T03:53:08.527Z,9.20
2018-07-21T03:55:36.970Z,8.40
2018-07-21T03:58:05.424Z,8.83
2018-07-21T04:00:33.953Z,9.80
2018-07-21T04:03:02.553Z,9.67
2018-07-21T04:05:30.940Z,8.83
2018-07-21T04:07:59.290Z,8.20
2018-07-21T04:10:27.778Z,8.03
2018-07-21T04:12:56.305Z,9.40
2018-07-21T04:15:24.806Z,8.80
2018-07-21T04:17:53.239Z,9.57
2018-07-21T04:20:21.660Z,9.70
2018-07-21T04:22:50.052Z,10.60
2018-07-21T04:25:18.506Z,9.83
2018-07-21T04:27:47.473Z,10.07
2018-07-21T04:30:15.940Z,9.33
2018-07-21T04:32:44.422Z,9.67
2018-07-21T04:35:12.843Z,10.10
2018-07-21T04:37:41.311Z,9.30
2018-07-21T04:40:09.787Z,9.90
2018-07-21T04:42:38.211Z,11.50
2018-07-21T04:45:06.664Z,10.43
2018-07-21T04:47:35.059Z,10.67
2018-07-21T04:50:04.226Z,9.63
2018-07-21T04:52:33.324Z,9.53
2018-07-21T04:55:01.782Z,9.50
2018-07-21T04:57:30.307Z,9.50
2018-07-21T04:59:58.740Z,9.43
2018-07-21T05:02:27.139Z,10.53
2018-07-21T05:04:55.599Z,10.00
2018-07-21T05:07:24.020Z,10.07
2018-07-21T05:09:52.435Z,10.77
2018-07-21T05:12:20.880Z,13.70
2018-07-21T05:14:49.272Z,12.63
2018-07-21T05:17:17.779Z,13.70
2018-07-21T05:19:46.157Z,15.23
2018-07-21T05:22:14.527Z,14.13
2018-07-21T05:24:43.229Z,14.00
2018-07-21T05:27:11.688Z,14.73
2018-07-21T05:29:40.461Z,13.40
2018-07-21T05:32:08.917Z,11.90
2018-07-21T05:34:37.334Z,14.00
2018-07-21T05:37:05.727Z,12.20
2018-07-21T05:39:34.157Z,11.20
2018-07-21T05:42:02.593Z,10.93
2018-07-21T05:44:31.023Z,11.97
2018-07-21T05:46:59.449Z,12.47
2018-07-21T05:49:27.912Z,11.97
2018-07-21T05:51:56.389Z,12.40
2018-07-21T05:54:25.007Z,12.20
2018-07-21T05:56:53.422Z,12.70
2018-07-21T05:59:22.277Z,11.80
2018-07-21T06:01:50.852Z,10.80
2018-07-21T06:04:19.249Z,11.90
2018-07-21T06:06:47.724Z,10.60
2018-07-21T06:09:16.084Z,10.00
2018-07-21T06:11:45.505Z,10.67
2018-07-21T06:14:13.976Z,9.70
2018-07-21T06:16:42.490Z,11.27
2018-07-21T06:19:10.908Z,11.50
2018-07-21T06:21:39.332Z,11.60
2018-07-21T06:24:07.763Z,10.17
2018-07-21T06:26:36.581Z,12.30
2018-07-21T06:29:05.008Z,12.17
2018-07-21T06:31:33.527Z,11.07
2018-07-21T06:34:01.954Z,12.27
2018-07-21T06:36:30.513Z,11.03
2018-07-21T06:38:58.993Z,11.80
2018-07-21T06:41:27.448Z,13.60
2018-07-21T06:43:55.937Z,12.40
2018-07-21T06:46:24.390Z,11.10
2018-07-21T06:48:52.835Z,11.93
2018-07-21T06:51:21.394Z,14.57
2018-07-21T06:53:49.834Z,13.87
2018-07-21T06:56:18.258Z,14.00
2018-07-21T06:58:46.649Z,15.40
2018-07-21T07:01:15.039Z,14.90
2018-07-21T07:03:43.845Z,14.53
2018-07-21T07:06:12.314Z,14.63
2018-07-21T07:08:40.732Z,14.70
2018-07-21T07:11:09.164Z,15.63
2018-07-21T07:13:37.616Z,14.40
2018-07-21T07:16:06.283Z,16.03
2018-07-21T07:18:34.761Z,15.80
2018-07-21T07:21:03.292Z,16.00
2018-07-21T07:23:31.705Z,16.80
2018-07-21T07:26:00.148Z,15.33
2018-07-21T07:28:28.562Z,15.23
2018-07-21T07:30:57.023Z,15.80
2018-07-21T07:33:25.444Z,14.43
2018-07-21T07:35:54.542Z,14.03
2018-07-21T07:38:22.948Z,13.80
2018-07-21T07:40:51.690Z,14.00
2018-07-21T07:43:20.114Z,14.10
2018-07-21T07:45:48.601Z,13.90
2018-07-21T07:48:17.012Z,21.00
2018-07-21T07:50:45.484Z,15.27
2018-07-21T07:53:14.706Z,12.97
2018-07-21T07:55:43.131Z,13.20
2018-07-21T07:58:11.524Z,12.93
2018-07-21T08:00:39.953Z,13.90
2018-07-21T08:03:08.406Z,12.63
2018-07-21T08:05:36.775Z,13.77
2018-07-21T08:08:05.273Z,15.37
2018-07-21T08:10:33.729Z,16.90
2018-07-21T08:13:02.263Z,19.33
2018-07-21T08:15:30.669Z,16.40
2018-07-21T08:17:59.216Z,14.20
2018-07-21T08:20:27.620Z,14.33
2018-07-21T08:22:56.108Z,14.80
2018-07-21T08:25:24.510Z,14.07
2018-07-21T08:27:54.030Z,16.20
2018-07-21T08:30:22.475Z,16.77
2018-07-21T08:32:50.903Z,15.17
2018-07-21T08:35:19.324Z,17.20
2018-07-21T08:37:47.716Z,15.87
2018-07-21T08:40:16.128Z,14.80
2018-07-21T08:42:44.591Z,15.20
2018-07-21T08:45:13.043Z,15.10
2018-07-21T08:47:41.480Z,14.70
2018-07-21T08:50:09.900Z,15.20
2018-07-21T08:52:38.366Z,13.70
2018-07-21T08:55:06.799Z,14.87
2018-07-21T08:57:35.280Z,13.80
2018-07-21T09:00:04.412Z,15.30
2018-07-21T09:02:32.816Z,13.63
2018-07-21T09:05:01.297Z,12.77
2018-07-21T09:07:29.728Z,12.80
2018-07-21T09:09:58.349Z,12.10
2018-07-21T09:12:26.798Z,10.03
2018-07-21T09:14:55.575Z,9.67
2018-07-21T09:17:24.016Z,10.50
2018-07-21T09:19:52.933Z,10.37
2018-07-21T09:22:21.310Z,9.60
2018-07-21T09:24:50.108Z,10.00
2018-07-21T09:27:18.588Z,9.60
2018-07-21T09:29:47.071Z,8.87
2018-07-21T09:32:15.539Z,8.73
2018-07-21T09:34:44.544Z,8.03
2018-07-21T09:37:13.342Z,7.77
2018-07-21T09:39:41.715Z,6.93
2018-07-21T09:42:10.132Z,7.07
2018-07-21T09:44:38.528Z,9.00
2018-07-21T09:47:07.002Z,8.60
2018-07-21T09:49:35.907Z,9.30
2018-07-21T09:52:04.805Z,7.20
2018-07-21T09:54:34.052Z,7.90
2018-07-21T09:57:02.515Z,7.07
2018-07-21T09:59:30.922Z,6.60
2018-07-21T10:01:59.404Z,6.97
2018-07-21T10:04:27.840Z,7.90
2018-07-21T10:06:56.231Z,6.93
2018-07-21T10:09:24.713Z,7.30
2018-07-21T10:11:53.130Z,6.00
2018-07-21T10:14:21.624Z,6.27
2018-07-21T10:16:50.102Z,8.20
2018-07-21T10:19:18.576Z,6.40
2018-07-21T10:21:47.106Z,6.13
2018-07-21T10:24:20.657Z,7.10
2018-07-21T10:26:54.382Z,6.07
2018-07-21T10:29:22.860Z,6.33
2018-07-21T10:31:51.292Z,5.70
2018-07-21T10:34:19.715Z,6.63
2018-07-21T10:36:48.163Z,6.03
2018-07-21T10:39:16.568Z,6.47
2018-07-21T10:41:45.059Z,5.73
2018-07-21T10:44:13.481Z,6.40
2018-07-21T10:46:42.019Z,6.77
2018-07-21T10:49:10.404Z,5.90
2018-07-21T10:51:38.895Z,8.40
2018-07-21T10:54:07.613Z,5.53
2018-07-21T10:56:36.095Z,6.70
2018-07-21T10:59:04.608Z,6.57
2018-07-21T11:01:33.024Z,6.80
2018-07-21T11:04:01.460Z,6.70
2018-07-21T11:06:29.932Z,5.17
2018-07-21T11:08:58.332Z,6.43
2018-07-21T11:11:26.741Z,6.93
2018-07-21T11:13:55.115Z,6.47
2018-07-21T11:16:23.582Z,6.20
2018-07-21T11:18:51.991Z,7.20
2018-07-21T11:21:20.372Z,6.60
2018-07-21T11:23:48.768Z,7.47
2018-07-21T11:26:17.220Z,6.70
2018-07-21T11:28:45.627Z,7.33
2018-07-21T11:31:14.062Z,6.10
2018-07-21T11:33:42.421Z,7.30
2018-07-21T11:36:11.032Z,7.67
2018-07-21T11:38:39.176Z,6.63
2018-07-21T11:41:07.612Z,6.70
2018-07-21T11:43:36.475Z,6.07
2018-07-21T11:46:04.986Z,5.90
2018-07-21T11:48:33.439Z,7.10
2018-07-21T11:51:02.791Z,6.40
2018-07-21T11:53:31.233Z,7.67
2018-07-21T11:55:59.664Z,7.87
2018-07-21T11:58:28.074Z,6.03
2018-07-21T12:00:56.495Z,7.30
2018-07-21T12:03:24.963Z,8.90
2018-07-21T12:05:53.397Z,7.60
2018-07-21T12:08:21.789Z,6.70
2018-07-21T12:10:50.212Z,6.87
2018-07-21T12:13:18.668Z,6.93
2018-07-21T12:15:47.129Z,7.00
2018-07-21T12:18:15.567Z,6.60
2018-07-21T12:20:44.045Z,6.10
2018-07-21T12:23:12.464Z,7.27
2018-07-21T12:25:40.904Z,8.20
2018-07-21T12:28:09.379Z,7.67
2018-07-21T12:30:37.884Z,6.70
2018-07-21T12:33:06.605Z,7.67
2018-07-21T12:35:35.037Z,7.37
2018-07-21T12:38:03.541Z,7.23
2018-07-21T12:40:32.014Z,6.60
2018-07-21T12:43:00.416Z,6.40
2018-07-21T12:45:28.839Z,6.10
2018-07-21T12:47:57.240Z,7.10
2018-07-21T12:50:25.643Z,6.10
2018-07-21T12:52:54.077Z,8.10
2018-07-21T12:55:22.544Z,7.10
2018-07-21T12:57:50.992Z,6.07
2018-07-21T13:00:19.438Z,6.90
2018-07-21T13:02:47.820Z,6.80
2018-07-21T13:05:16.392Z,5.87
2018-07-21T13:07:44.852Z,6.13
2018-07-21T13:10:13.309Z,6.53
2018-07-21T13:12:41.892Z,6.67
2018-07-21T13:15:10.340Z,6.70
2018-07-21T13:17:38.867Z,7.63
2018-07-21T13:20:07.472Z,6.17
2018-07-21T13:22:35.932Z,6.30
2018-07-21T13:25:04.512Z,5.80
2018-07-21T13:27:32.932Z,6.20
2018-07-21T13:30:01.337Z,7.57
2018-07-21T13:32:29.796Z,6.00
2018-07-21T13:34:58.540Z,6.30
2018-07-21T13:37:28.052Z,6.00
2018-07-21T13:39:56.397Z,5.83
2018-07-21T13:42:25.128Z,6.00
2018-07-21T13:44:53.592Z,5.90
2018-07-21T13:47:21.985Z,5.67
2018-07-21T13:49:50.404Z,5.70
2018-07-21T13:52:18.889Z,5.80
2018-07-21T13:54:48.320Z,5.80
2018-07-21T13:57:16.722Z,6.73
2018-07-21T13:59:45.111Z,5.70
2018-07-21T14:02:13.586Z,6.40
2018-07-21T14:04:41.998Z,5.80
2018-07-21T14:07:10.476Z,5.27
2018-07-21T14:09:38.928Z,6.17
2018-07-21T14:12:07.603Z,5.80
2018-07-21T14:14:36.180Z,6.23
2018-07-21T14:17:04.641Z,6.30
2018-07-21T14:19:33.126Z,6.03
2018-07-21T14:22:01.566Z,5.80
2018-07-21T14:24:30.010Z,6.20
2018-07-21T14:26:58.456Z,6.13
2018-07-21T14:29:26.892Z,5.40
2018-07-21T14:31:55.534Z,6.43
2018-07-21T14:34:23.935Z,6.37
2018-07-21T14:36:52.363Z,6.47
2018-07-21T14:39:20.729Z,6.70
2018-07-21T14:41:49.280Z,6.00
2018-07-21T14:44:17.672Z,6.70
2018-07-21T14:46:46.121Z,6.50
2018-07-21T14:49:14.513Z,5.77
2018-07-21T14:51:42.973Z,5.90
2018-07-21T14:54:11.469Z,5.87
2018-07-21T14:56:39.883Z,6.10
2018-07-21T14:59:08.391Z,6.10
2018-07-21T15:01:36.865Z,5.97
2018-07-21T15:04:05.300Z,5.70
2018-07-21T15:06:33.946Z,6.30
2018-07-21T15:09:02.356Z,6.20
2018-07-21T15:11:30.747Z,5.77
2018-07-21T15:13:59.228Z,5.77
2018-07-21T15:16:29.097Z,5.83
2018-07-21T15:18:57.600Z,6.40
2018-07-21T15:21:26.092Z,6.20
2018-07-21T15:23:54.533Z,6.40
2018-07-21T15:26:23.142Z,6.03
2018-07-21T15:28:51.610Z,6.93
2018-07-21T15:31:20.051Z,6.10
2018-07-21T15:33:48.488Z,6.90
2018-07-21T15:36:16.870Z,6.50
2018-07-21T15:38:45.380Z,6.20
2018-07-21T15:41:13.904Z,6.37
2018-07-21T15:43:42.294Z,6.03
2018-07-21T15:46:10.845Z,5.77
2018-07-21T15:48:39.298Z,6.03
2018-07-21T15:51:08.064Z,6.50
2018-07-21T15:53:36.491Z,7.33
2018-07-21T15:56:04.957Z,6.30
2018-07-21T15:58:33.433Z,6.17
2018-07-21T16:01:01.827Z,6.63
2018-07-21T16:03:30.382Z,6.30
2018-07-21T16:05:58.837Z,6.47
2018-07-21T16:08:27.244Z,6.40
2018-07-21T16:10:55.624Z,6.13
2018-07-21T16:13:24.033Z,6.07
2018-07-21T16:15:52.479Z,6.70
2018-07-21T16:18:20.948Z,6.57
2018-07-21T16:20:49.376Z,6.40
2018-07-21T16:23:17.803Z,6.57
2018-07-21T16:25:46.329Z,6.30
2018-07-21T16:28:14.886Z,6.57
2018-07-21T16:30:43.316Z,5.93
2018-07-21T16:33:11.740Z,5.43
2018-07-21T16:35:40.191Z,7.00
2018-07-21T16:38:08.590Z,7.30
2018-07-21T16:40:36.977Z,7.20
2018-07-21T16:43:05.375Z,6.60
2018-07-21T16:45:33.871Z,6.80
2018-07-21T16:48:02.294Z,9.20
2018-07-21T16:50:30.696Z,7.47
2018-07-21T16:53:00.894Z,7.80
2018-07-21T16:55:29.337Z,7.87
2018-07-21T16:57:57.743Z,28.43
2018-07-21T17:00:26.146Z,11.03
2018-07-21T17:02:54.574Z,8.20
2018-07-21T17:05:22.974Z,6.50
2018-07-21T17:07:51.451Z,6.37
2018-07-21T17:10:19.866Z,7.90
2018-07-21T17:12:48.319Z,7.90
2018-07-21T17:15:17.499Z,6.20
2018-07-21T17:17:45.858Z,6.10
2018-07-21T17:20:14.364Z,18.93
2018-07-21T17:22:42.793Z,10.40
2018-07-21T17:25:11.188Z,15.03
2018-07-21T17:27:39.616Z,6.10
2018-07-21T17:30:08.099Z,7.13
2018-07-21T17:32:36.522Z,7.50
2018-07-21T17:35:04.981Z,6.30
2018-07-21T17:37:33.427Z,6.40
2018-07-21T17:40:01.897Z,6.50
2018-07-21T17:42:30.322Z,5.90
2018-07-21T17:44:58.748Z,6.70
2018-07-21T17:47:27.147Z,9.23
2018-07-21T17:49:55.603Z,8.13
2018-07-21T17:52:24.107Z,6.27
2018-07-21T17:54:52.572Z,8.00
2018-07-21T17:57:20.957Z,5.60
2018-07-21T17:59:49.368Z,4.77
2018-07-21T18:02:17.871Z,5.20
2018-07-21T18:04:46.266Z,6.40
2018-07-21T18:07:14.693Z,6.30
2018-07-21T18:09:43.202Z,5.57
2018-07-21T18:12:11.692Z,5.30
2018-07-21T18:14:40.131Z,5.40
2018-07-21T18:17:08.632Z,6.40
2018-07-21T18:19:37.241Z,6.40
2018-07-21T18:22:06.038Z,6.20
2018-07-21T18:24:34.992Z,6.53
2018-07-21T18:27:03.503Z,7.90
2018-07-21T18:29:31.912Z,8.10
2018-07-21T18:32:00.351Z,7.83
2018-07-21T18:34:28.780Z,8.70
2018-07-21T18:36:57.204Z,8.97
2018-07-21T18:39:25.620Z,8.40
2018-07-21T18:41:54.621Z,8.60
2018-07-21T18:44:23.188Z,7.80
2018-07-21T18:46:51.613Z,9.20
2018-07-21T18:49:20.463Z,10.37
2018-07-21T18:51:48.885Z,11.23
2018-07-21T18:54:18.115Z,9.13
2018-07-21T18:56:46.616Z,6.90
2018-07-21T18:59:15.613Z,8.13
2018-07-21T19:01:44.055Z,8.90
2018-07-21T19:04:12.479Z,9.27
2018-07-21T19:06:40.906Z,6.17
2018-07-21T19:09:10.024Z,9.30
2018-07-21T19:11:38.803Z,8.40
2018-07-21T19:14:07.310Z,7.23
2018-07-21T19:16:44.046Z,6.80
2018-07-21T19:19:12.505Z,7.97
2018-07-21T19:21:42.081Z,5.80
2018-07-21T19:24:10.973Z,6.00
2018-07-21T19:26:45.580Z,5.40
2018-07-21T19:29:14.148Z,7.10
2018-07-21T19:31:48.062Z,7.30
2018-07-21T19:34:16.810Z,7.97
2018-07-21T19:36:45.553Z,8.47
2018-07-21T19:39:14.068Z,8.43
2018-07-21T19:41:47.972Z,8.67
2018-07-21T19:44:17.068Z,11.40
2018-07-21T19:46:45.463Z,8.17
2018-07-21T19:49:13.888Z,7.40
2018-07-21T19:51:42.315Z,7.83
2018-07-21T19:54:10.798Z,8.03
2018-07-21T19:56:39.271Z,8.63
2018-07-21T19:59:07.620Z,7.97
2018-07-21T20:01:35.976Z,7.60
2018-07-21T20:04:04.425Z,6.73
2018-07-21T20:06:32.783Z,8.20
2018-07-21T20:09:01.244Z,9.00
2018-07-21T20:11:29.722Z,8.20
2018-07-21T20:13:58.185Z,9.30
2018-07-21T20:16:26.591Z,7.80
2018-07-21T20:18:55.058Z,8.70
2018-07-21T20:21:23.509Z,7.83
2018-07-21T20:23:51.949Z,8.63
2018-07-21T20:26:20.533Z,8.37
2018-07-21T20:28:48.934Z,7.90
2018-07-21T20:31:17.373Z,8.10
2018-07-21T20:33:45.807Z,7.77
2018-07-21T20:36:14.264Z,7.43
2018-07-21T20:38:42.656Z,8.07
2018-07-21T20:41:11.089Z,8.30
2018-07-21T20:43:39.523Z,8.70
2018-07-21T20:46:07.912Z,9.57
2018-07-21T20:48:36.425Z,8.03
2018-07-21T20:51:04.910Z,8.30
2018-07-21T20:53:33.363Z,9.07
2018-07-21T20:56:01.842Z,8.37
2018-07-21T20:58:30.293Z,8.27
2018-07-21T21:00:58.695Z,8.80
2018-07-21T21:03:27.151Z,8.50
2018-07-21T21:05:55.593Z,8.50
2018-07-21T21:08:24.054Z,7.80
2018-07-21T21:10:52.545Z,9.40
2018-07-21T21:13:21.051Z,9.20
2018-07-21T21:15:49.558Z,9.70
2018-07-21T21:18:18.155Z,9.97
2018-07-21T21:20:46.593Z,9.57
2018-07-21T21:23:15.040Z,12.90
2018-07-21T21:25:43.505Z,10.33
2018-07-21T21:28:11.961Z,10.07
2018-07-21T21:30:40.436Z,10.10
2018-07-21T21:33:08.850Z,11.73
2018-07-21T21:35:37.274Z,10.40
2018-07-21T21:38:05.781Z,11.47
2018-07-21T21:40:34.240Z,10.33
2018-07-21T21:43:02.703Z,10.80
2018-07-21T21:45:31.152Z,10.70
2018-07-21T21:47:59.638Z,11.90
2018-07-21T21:50:28.599Z,10.60
2018-07-21T21:52:57.301Z,10.23
2018-07-21T21:55:25.831Z,10.60
2018-07-21T21:57:54.256Z,11.47
2018-07-21T22:00:22.802Z,12.47
2018-07-21T22:02:51.212Z,12.17
2018-07-21T22:05:19.633Z,10.53
2018-07-21T22:07:48.071Z,12.10
2018-07-21T22:10:17.444Z,12.70
2018-07-21T22:12:45.848Z,12.37
2018-07-21T22:15:18.280Z,31.00
2018-07-21T22:17:46.724Z,15.07
2018-07-21T22:20:15.115Z,14.70
2018-07-21T22:22:43.948Z,14.47
2018-07-21T22:25:13.245Z,14.57
2018-07-21T22:27:41.667Z,15.20
2018-07-21T22:30:11.165Z,15.00
2018-07-21T22:32:39.574Z,19.00
2018-07-21T22:35:08.047Z,16.93
2018-07-21T22:37:36.511Z,16.80
2018-07-21T22:40:04.972Z,15.20
2018-07-21T22:42:33.397Z,14.40
2018-07-21T22:45:01.861Z,14.73
2018-07-21T22:47:30.248Z,14.23
2018-07-21T22:49:58.615Z,15.50
2018-07-21T22:52:27.016Z,15.23
2018-07-21T22:54:55.452Z,14.53
2018-07-21T22:57:23.908Z,14.90
2018-07-21T22:59:52.299Z,15.20
2018-07-21T23:02:20.767Z,16.00
2018-07-21T23:04:49.204Z,14.97
2018-07-21T23:07:17.621Z,14.93
2018-07-21T23:09:46.127Z,17.77
2018-07-21T23:12:14.559Z,15.80
2018-07-21T23:14:43.012Z,15.27
2018-07-21T23:17:11.504Z,15.13
2018-07-21T23:19:39.916Z,14.97
2018-07-21T23:22:08.491Z,15.33
2018-07-21T23:24:37.413Z,15.33
2018-07-21T23:27:05.840Z,14.40
2018-07-21T23:29:34.260Z,15.63
2018-07-21T23:32:02.717Z,15.43
2018-07-21T23:34:31.142Z,15.03
2018-07-21T23:36:59.612Z,14.73
2018-07-21T23:39:28.041Z,15.37
2018-07-21T23:41:57.052Z,15.17
2018-07-21T23:44:25.521Z,16.10
2018-07-21T23:46:53.945Z,15.03
2018-07-21T23:49:22.321Z,16.67
2018-07-21T23:51:50.785Z,16.00
2018-07-21T23:54:19.185Z,17.50
2018-07-21T23:56:47.591Z,16.33
2018-07-21T23:59:16.020Z,16.40
